sensor_id;sensor_type;location;lat;lon;timestamp;P1;durP1;ratioP1;P2;durP2;ratioP2
32200;SDS011;18701;45.588;5.288;2023-02-28T00:00:22;15.57;;;9.45;;
32200;SDS011;18701;45.588;5.288;2023-02-28T00:02:48;14.20;;;9.05;;
32200;SDS011;18701;45.588;5.288;2023-02-28T00:05:15;17.23;;;8.73;;
32200;SDS011;18701;45.588;5.288;2023-02-28T00:07:43;14.38;;;7.45;;
32200;SDS011;18701;45.588;5.288;2023-02-28T00:10:11;16.08;;;8.82;;
32200;SDS011;18701;45.588;5.288;2023-02-28T00:12:38;12.48;;;7.55;;
32200;SDS011;18701;45.588;5.288;2023-02-28T00:15:08;11.10;;;7.35;;
32200;SDS011;18701;45.588;5.288;2023-02-28T00:17:35;12.32;;;7.80;;
32200;SDS011;18701;45.588;5.288;2023-02-28T00:20:01;15.50;;;7.88;;
32200;SDS011;18701;45.588;5.288;2023-02-28T00:22:29;13.52;;;7.75;;
32200;SDS011;18701;45.588;5.288;2023-02-28T00:24:55;14.15;;;8.27;;
32200;SDS011;18701;45.588;5.288;2023-02-28T00:27:21;13.25;;;8.32;;
32200;SDS011;18701;45.588;5.288;2023-02-28T00:29:47;14.23;;;8.43;;
32200;SDS011;18701;45.588;5.288;2023-02-28T00:32:13;13.93;;;8.38;;
32200;SDS011;18701;45.588;5.288;2023-02-28T00:34:38;11.50;;;7.15;;
32200;SDS011;18701;45.588;5.288;2023-02-28T00:37:07;11.95;;;8.07;;
32200;SDS011;18701;45.588;5.288;2023-02-28T00:39:37;12.20;;;7.55;;
32200;SDS011;18701;45.588;5.288;2023-02-28T00:42:02;14.30;;;7.95;;
32200;SDS011;18701;45.588;5.288;2023-02-28T00:44:29;12.50;;;7.68;;
32200;SDS011;18701;45.588;5.288;2023-02-28T00:46:55;9.07;;;6.50;;
32200;SDS011;18701;45.588;5.288;2023-02-28T00:49:22;11.63;;;7.40;;
32200;SDS011;18701;45.588;5.288;2023-02-28T00:51:47;10.32;;;6.95;;
32200;SDS011;18701;45.588;5.288;2023-02-28T00:54:13;16.40;;;8.23;;
32200;SDS011;18701;45.588;5.288;2023-02-28T00:56:39;11.70;;;7.57;;
32200;SDS011;18701;45.588;5.288;2023-02-28T00:59:04;14.60;;;7.45;;
32200;SDS011;18701;45.588;5.288;2023-02-28T01:01:30;11.73;;;8.02;;
32200;SDS011;18701;45.588;5.288;2023-02-28T01:03:56;11.88;;;6.88;;
32200;SDS011;18701;45.588;5.288;2023-02-28T01:06:21;11.80;;;8.20;;
32200;SDS011;18701;45.588;5.288;2023-02-28T01:08:48;12.00;;;7.88;;
32200;SDS011;18701;45.588;5.288;2023-02-28T01:11:14;12.85;;;7.72;;
32200;SDS011;18701;45.588;5.288;2023-02-28T01:13:44;14.73;;;7.85;;
32200;SDS011;18701;45.588;5.288;2023-02-28T01:16:11;14.65;;;8.15;;
32200;SDS011;18701;45.588;5.288;2023-02-28T01:18:37;9.95;;;6.80;;
32200;SDS011;18701;45.588;5.288;2023-02-28T01:21:07;14.55;;;7.82;;
32200;SDS011;18701;45.588;5.288;2023-02-28T01:23:34;12.65;;;7.63;;
32200;SDS011;18701;45.588;5.288;2023-02-28T01:26:07;12.23;;;7.43;;
32200;SDS011;18701;45.588;5.288;2023-02-28T01:28:34;12.75;;;7.28;;
32200;SDS011;18701;45.588;5.288;2023-02-28T01:31:00;12.95;;;7.80;;
32200;SDS011;18701;45.588;5.288;2023-02-28T01:33:26;11.27;;;7.65;;
32200;SDS011;18701;45.588;5.288;2023-02-28T01:36:05;10.70;;;7.13;;
32200;SDS011;18701;45.588;5.288;2023-02-28T01:38:36;10.65;;;7.38;;
32200;SDS011;18701;45.588;5.288;2023-02-28T01:41:01;12.57;;;7.22;;
32200;SDS011;18701;45.588;5.288;2023-02-28T01:43:28;8.90;;;6.03;;
32200;SDS011;18701;45.588;5.288;2023-02-28T01:45:56;10.48;;;6.90;;
32200;SDS011;18701;45.588;5.288;2023-02-28T01:48:25;13.60;;;7.80;;
32200;SDS011;18701;45.588;5.288;2023-02-28T01:50:55;12.38;;;8.05;;
32200;SDS011;18701;45.588;5.288;2023-02-28T01:54:09;13.63;;;7.60;;
32200;SDS011;18701;45.588;5.288;2023-02-28T01:56:19;13.75;;;7.85;;
32200;SDS011;18701;45.588;5.288;2023-02-28T01:58:48;13.48;;;8.43;;
32200;SDS011;18701;45.588;5.288;2023-02-28T02:01:18;8.15;;;5.30;;
32200;SDS011;18701;45.588;5.288;2023-02-28T02:03:53;11.55;;;5.40;;
32200;SDS011;18701;45.588;5.288;2023-02-28T02:06:53;7.43;;;5.32;;
32200;SDS011;18701;45.588;5.288;2023-02-28T02:09:12;9.27;;;4.38;;
32200;SDS011;18701;45.588;5.288;2023-02-28T02:11:39;10.30;;;5.72;;
32200;SDS011;18701;45.588;5.288;2023-02-28T02:14:26;6.18;;;4.22;;
32200;SDS011;18701;45.588;5.288;2023-02-28T02:17:08;7.78;;;3.85;;
32200;SDS011;18701;45.588;5.288;2023-02-28T02:25:29;6.65;;;4.25;;
32200;SDS011;18701;45.588;5.288;2023-02-28T02:31:41;6.35;;;4.47;;
32200;SDS011;18701;45.588;5.288;2023-02-28T02:34:05;7.80;;;4.47;;
32200;SDS011;18701;45.588;5.288;2023-02-28T02:36:35;7.57;;;4.82;;
32200;SDS011;18701;45.588;5.288;2023-02-28T02:42:15;7.78;;;4.43;;
32200;SDS011;18701;45.588;5.288;2023-02-28T02:44:51;7.47;;;4.53;;
32200;SDS011;18701;45.588;5.288;2023-02-28T02:47:25;6.22;;;4.45;;
32200;SDS011;18701;45.588;5.288;2023-02-28T02:49:55;8.23;;;4.93;;
32200;SDS011;18701;45.588;5.288;2023-02-28T02:52:26;12.10;;;5.22;;
32200;SDS011;18701;45.588;5.288;2023-02-28T02:55:06;7.45;;;4.43;;
32200;SDS011;18701;45.588;5.288;2023-02-28T02:57:38;10.18;;;4.70;;
32200;SDS011;18701;45.588;5.288;2023-02-28T03:00:16;8.40;;;4.85;;
32200;SDS011;18701;45.588;5.288;2023-02-28T03:02:45;7.55;;;4.63;;
32200;SDS011;18701;45.588;5.288;2023-02-28T03:05:17;10.25;;;4.80;;
32200;SDS011;18701;45.588;5.288;2023-02-28T03:07:50;7.82;;;4.90;;
32200;SDS011;18701;45.588;5.288;2023-02-28T03:10:25;6.80;;;4.97;;
32200;SDS011;18701;45.588;5.288;2023-02-28T03:12:57;7.03;;;4.65;;
32200;SDS011;18701;45.588;5.288;2023-02-28T03:15:37;8.00;;;4.70;;
32200;SDS011;18701;45.588;5.288;2023-02-28T03:18:22;9.40;;;4.72;;
32200;SDS011;18701;45.588;5.288;2023-02-28T03:21:23;8.52;;;4.10;;
32200;SDS011;18701;45.588;5.288;2023-02-28T03:23:56;6.22;;;4.28;;
32200;SDS011;18701;45.588;5.288;2023-02-28T03:26:29;8.05;;;4.68;;
32200;SDS011;18701;45.588;5.288;2023-02-28T03:31:41;7.20;;;4.40;;
32200;SDS011;18701;45.588;5.288;2023-02-28T03:34:33;10.05;;;4.65;;
32200;SDS011;18701;45.588;5.288;2023-02-28T03:37:04;8.73;;;4.85;;
32200;SDS011;18701;45.588;5.288;2023-02-28T03:39:39;8.10;;;4.80;;
32200;SDS011;18701;45.588;5.288;2023-02-28T03:42:23;10.10;;;4.80;;
32200;SDS011;18701;45.588;5.288;2023-02-28T03:44:53;6.85;;;4.82;;
32200;SDS011;18701;45.588;5.288;2023-02-28T03:47:32;7.78;;;5.38;;
32200;SDS011;18701;45.588;5.288;2023-02-28T03:50:17;7.85;;;5.10;;
32200;SDS011;18701;45.588;5.288;2023-02-28T03:52:53;8.63;;;5.22;;
32200;SDS011;18701;45.588;5.288;2023-02-28T03:55:26;8.05;;;4.70;;
32200;SDS011;18701;45.588;5.288;2023-02-28T04:01:22;9.35;;;4.80;;
32200;SDS011;18701;45.588;5.288;2023-02-28T04:03:57;6.80;;;4.60;;
32200;SDS011;18701;45.588;5.288;2023-02-28T04:06:23;9.43;;;4.93;;
32200;SDS011;18701;45.588;5.288;2023-02-28T04:08:50;9.02;;;5.00;;
32200;SDS011;18701;45.588;5.288;2023-02-28T04:11:35;9.52;;;4.93;;
32200;SDS011;18701;45.588;5.288;2023-02-28T04:14:02;8.45;;;4.65;;
32200;SDS011;18701;45.588;5.288;2023-02-28T04:16:28;7.10;;;4.18;;
32200;SDS011;18701;45.588;5.288;2023-02-28T04:18:54;7.50;;;4.50;;
32200;SDS011;18701;45.588;5.288;2023-02-28T04:21:27;9.02;;;4.10;;
32200;SDS011;18701;45.588;5.288;2023-02-28T04:24:06;6.55;;;4.50;;
32200;SDS011;18701;45.588;5.288;2023-02-28T04:26:39;10.02;;;4.50;;
32200;SDS011;18701;45.588;5.288;2023-02-28T04:29:06;7.47;;;4.35;;
32200;SDS011;18701;45.588;5.288;2023-02-28T04:31:32;5.70;;;4.00;;
32200;SDS011;18701;45.588;5.288;2023-02-28T04:33:58;7.93;;;4.38;;
32200;SDS011;18701;45.588;5.288;2023-02-28T04:36:24;6.57;;;4.05;;
32200;SDS011;18701;45.588;5.288;2023-02-28T04:38:51;7.03;;;4.82;;
32200;SDS011;18701;45.588;5.288;2023-02-28T04:41:16;8.13;;;4.70;;
32200;SDS011;18701;45.588;5.288;2023-02-28T04:43:43;5.95;;;4.13;;
32200;SDS011;18701;45.588;5.288;2023-02-28T04:46:09;8.02;;;4.60;;
32200;SDS011;18701;45.588;5.288;2023-02-28T04:48:36;9.60;;;4.75;;
32200;SDS011;18701;45.588;5.288;2023-02-28T04:51:04;9.32;;;4.40;;
32200;SDS011;18701;45.588;5.288;2023-02-28T04:53:34;11.38;;;4.10;;
32200;SDS011;18701;45.588;5.288;2023-02-28T04:56:01;10.93;;;4.30;;
32200;SDS011;18701;45.588;5.288;2023-02-28T04:58:27;9.02;;;4.50;;
32200;SDS011;18701;45.588;5.288;2023-02-28T05:00:53;8.43;;;4.72;;
32200;SDS011;18701;45.588;5.288;2023-02-28T05:03:19;9.45;;;3.90;;
32200;SDS011;18701;45.588;5.288;2023-02-28T05:05:47;6.95;;;4.32;;
32200;SDS011;18701;45.588;5.288;2023-02-28T05:08:12;6.65;;;4.20;;
32200;SDS011;18701;45.588;5.288;2023-02-28T05:10:38;7.32;;;4.10;;
32200;SDS011;18701;45.588;5.288;2023-02-28T05:13:04;5.85;;;4.10;;
32200;SDS011;18701;45.588;5.288;2023-02-28T05:15:29;6.93;;;4.35;;
32200;SDS011;18701;45.588;5.288;2023-02-28T05:17:55;5.85;;;3.83;;
32200;SDS011;18701;45.588;5.288;2023-02-28T05:20:21;8.57;;;4.05;;
32200;SDS011;18701;45.588;5.288;2023-02-28T05:22:47;9.07;;;4.45;;
32200;SDS011;18701;45.588;5.288;2023-02-28T05:25:17;7.55;;;3.83;;
32200;SDS011;18701;45.588;5.288;2023-02-28T05:27:44;8.00;;;4.38;;
32200;SDS011;18701;45.588;5.288;2023-02-28T05:30:10;6.85;;;4.55;;
32200;SDS011;18701;45.588;5.288;2023-02-28T05:32:36;7.22;;;4.22;;
32200;SDS011;18701;45.588;5.288;2023-02-28T05:35:03;7.35;;;5.05;;
32200;SDS011;18701;45.588;5.288;2023-02-28T05:37:29;8.23;;;5.18;;
32200;SDS011;18701;45.588;5.288;2023-02-28T05:39:54;10.98;;;4.72;;
32200;SDS011;18701;45.588;5.288;2023-02-28T05:42:20;9.00;;;4.28;;
32200;SDS011;18701;45.588;5.288;2023-02-28T05:44:46;7.25;;;4.32;;
32200;SDS011;18701;45.588;5.288;2023-02-28T05:47:11;12.68;;;3.63;;
32200;SDS011;18701;45.588;5.288;2023-02-28T05:49:40;7.30;;;4.03;;
32200;SDS011;18701;45.588;5.288;2023-02-28T05:52:06;8.65;;;4.60;;
32200;SDS011;18701;45.588;5.288;2023-02-28T05:54:32;6.50;;;3.80;;
32200;SDS011;18701;45.588;5.288;2023-02-28T05:56:57;11.60;;;4.40;;
32200;SDS011;18701;45.588;5.288;2023-02-28T05:59:23;7.25;;;3.90;;
32200;SDS011;18701;45.588;5.288;2023-02-28T06:01:49;7.55;;;4.35;;
32200;SDS011;18701;45.588;5.288;2023-02-28T06:04:15;5.45;;;4.13;;
32200;SDS011;18701;45.588;5.288;2023-02-28T06:06:44;7.88;;;4.65;;
32200;SDS011;18701;45.588;5.288;2023-02-28T06:09:10;8.82;;;4.03;;
32200;SDS011;18701;45.588;5.288;2023-02-28T06:11:36;5.55;;;3.72;;
32200;SDS011;18701;45.588;5.288;2023-02-28T06:14:04;6.07;;;3.92;;
32200;SDS011;18701;45.588;5.288;2023-02-28T06:16:30;6.45;;;3.97;;
32200;SDS011;18701;45.588;5.288;2023-02-28T06:18:58;7.10;;;3.63;;
32200;SDS011;18701;45.588;5.288;2023-02-28T06:21:27;6.78;;;3.92;;
32200;SDS011;18701;45.588;5.288;2023-02-28T06:23:53;10.85;;;4.13;;
32200;SDS011;18701;45.588;5.288;2023-02-28T06:26:19;7.55;;;3.97;;
32200;SDS011;18701;45.588;5.288;2023-02-28T06:28:45;7.72;;;4.45;;
32200;SDS011;18701;45.588;5.288;2023-02-28T06:31:13;8.70;;;4.07;;
32200;SDS011;18701;45.588;5.288;2023-02-28T06:33:41;10.13;;;4.60;;
32200;SDS011;18701;45.588;5.288;2023-02-28T06:36:07;15.75;;;4.38;;
32200;SDS011;18701;45.588;5.288;2023-02-28T06:38:34;10.60;;;4.13;;
32200;SDS011;18701;45.588;5.288;2023-02-28T06:41:01;6.93;;;3.53;;
32200;SDS011;18701;45.588;5.288;2023-02-28T06:43:28;11.02;;;4.05;;
32200;SDS011;18701;45.588;5.288;2023-02-28T06:45:56;9.77;;;3.88;;
32200;SDS011;18701;45.588;5.288;2023-02-28T06:48:23;7.63;;;4.10;;
32200;SDS011;18701;45.588;5.288;2023-02-28T06:50:50;8.85;;;4.05;;
32200;SDS011;18701;45.588;5.288;2023-02-28T06:53:17;7.72;;;3.88;;
32200;SDS011;18701;45.588;5.288;2023-02-28T06:55:43;9.55;;;4.05;;
32200;SDS011;18701;45.588;5.288;2023-02-28T06:58:09;6.55;;;3.83;;
32200;SDS011;18701;45.588;5.288;2023-02-28T07:00:44;8.68;;;3.50;;
32200;SDS011;18701;45.588;5.288;2023-02-28T07:03:11;14.02;;;4.07;;
32200;SDS011;18701;45.588;5.288;2023-02-28T07:05:38;5.80;;;2.97;;
32200;SDS011;18701;45.588;5.288;2023-02-28T07:08:05;4.80;;;3.30;;
32200;SDS011;18701;45.588;5.288;2023-02-28T07:10:31;5.90;;;3.58;;
32200;SDS011;18701;45.588;5.288;2023-02-28T07:12:58;5.60;;;3.15;;
32200;SDS011;18701;45.588;5.288;2023-02-28T07:15:25;8.65;;;3.35;;
32200;SDS011;18701;45.588;5.288;2023-02-28T07:17:50;5.80;;;3.40;;
32200;SDS011;18701;45.588;5.288;2023-02-28T07:20:16;8.13;;;4.07;;
32200;SDS011;18701;45.588;5.288;2023-02-28T07:22:42;5.93;;;3.60;;
32200;SDS011;18701;45.588;5.288;2023-02-28T07:25:08;4.82;;;3.15;;
32200;SDS011;18701;45.588;5.288;2023-02-28T07:27:34;5.70;;;3.35;;
32200;SDS011;18701;45.588;5.288;2023-02-28T07:30:00;7.32;;;3.47;;
32200;SDS011;18701;45.588;5.288;2023-02-28T07:32:26;8.48;;;3.67;;
32200;SDS011;18701;45.588;5.288;2023-02-28T07:34:53;6.43;;;3.67;;
32200;SDS011;18701;45.588;5.288;2023-02-28T07:37:19;12.02;;;3.60;;
32200;SDS011;18701;45.588;5.288;2023-02-28T07:39:45;5.78;;;3.22;;
32200;SDS011;18701;45.588;5.288;2023-02-28T07:42:11;14.13;;;3.63;;
32200;SDS011;18701;45.588;5.288;2023-02-28T07:44:40;6.28;;;3.38;;
32200;SDS011;18701;45.588;5.288;2023-02-28T07:47:10;6.40;;;3.95;;
32200;SDS011;18701;45.588;5.288;2023-02-28T07:49:36;7.22;;;3.58;;
32200;SDS011;18701;45.588;5.288;2023-02-28T07:52:03;7.85;;;3.65;;
32200;SDS011;18701;45.588;5.288;2023-02-28T07:54:29;6.35;;;3.53;;
32200;SDS011;18701;45.588;5.288;2023-02-28T07:56:55;7.22;;;3.17;;
32200;SDS011;18701;45.588;5.288;2023-02-28T07:59:20;6.38;;;3.13;;
32200;SDS011;18701;45.588;5.288;2023-02-28T08:01:46;7.95;;;3.08;;
32200;SDS011;18701;45.588;5.288;2023-02-28T08:04:14;8.23;;;3.58;;
32200;SDS011;18701;45.588;5.288;2023-02-28T08:06:40;6.35;;;3.65;;
32200;SDS011;18701;45.588;5.288;2023-02-28T08:09:05;5.45;;;3.63;;
32200;SDS011;18701;45.588;5.288;2023-02-28T08:11:31;6.30;;;3.10;;
32200;SDS011;18701;45.588;5.288;2023-02-28T08:13:56;4.63;;;3.15;;
32200;SDS011;18701;45.588;5.288;2023-02-28T08:16:22;5.13;;;3.35;;
32200;SDS011;18701;45.588;5.288;2023-02-28T08:18:51;5.63;;;3.47;;
32200;SDS011;18701;45.588;5.288;2023-02-28T08:21:18;8.85;;;3.50;;
32200;SDS011;18701;45.588;5.288;2023-02-28T08:23:46;14.88;;;3.38;;
32200;SDS011;18701;45.588;5.288;2023-02-28T08:26:13;4.43;;;2.42;;
32200;SDS011;18701;45.588;5.288;2023-02-28T08:28:39;11.82;;;3.75;;
32200;SDS011;18701;45.588;5.288;2023-02-28T08:31:11;7.53;;;3.70;;
32200;SDS011;18701;45.588;5.288;2023-02-28T08:33:38;6.95;;;3.75;;
32200;SDS011;18701;45.588;5.288;2023-02-28T08:36:06;6.63;;;3.38;;
32200;SDS011;18701;45.588;5.288;2023-02-28T08:38:32;4.40;;;2.40;;
32200;SDS011;18701;45.588;5.288;2023-02-28T08:40:59;11.20;;;3.13;;
32200;SDS011;18701;45.588;5.288;2023-02-28T08:43:26;8.63;;;3.13;;
32200;SDS011;18701;45.588;5.288;2023-02-28T08:45:52;7.00;;;2.80;;
32200;SDS011;18701;45.588;5.288;2023-02-28T08:48:19;4.45;;;3.13;;
32200;SDS011;18701;45.588;5.288;2023-02-28T08:50:45;6.50;;;3.85;;
32200;SDS011;18701;45.588;5.288;2023-02-28T08:53:22;10.68;;;3.47;;
32200;SDS011;18701;45.588;5.288;2023-02-28T08:55:55;8.02;;;3.42;;
32200;SDS011;18701;45.588;5.288;2023-02-28T08:58:21;8.50;;;2.88;;
32200;SDS011;18701;45.588;5.288;2023-02-28T09:00:47;8.50;;;3.33;;
32200;SDS011;18701;45.588;5.288;2023-02-28T09:03:12;6.55;;;3.40;;
32200;SDS011;18701;45.588;5.288;2023-02-28T09:05:38;8.70;;;3.78;;
32200;SDS011;18701;45.588;5.288;2023-02-28T09:08:03;5.70;;;3.42;;
32200;SDS011;18701;45.588;5.288;2023-02-28T09:10:29;8.57;;;4.03;;
32200;SDS011;18701;45.588;5.288;2023-02-28T09:12:55;9.70;;;3.70;;
32200;SDS011;18701;45.588;5.288;2023-02-28T09:15:20;4.60;;;3.03;;
32200;SDS011;18701;45.588;5.288;2023-02-28T09:17:46;6.53;;;3.20;;
32200;SDS011;18701;45.588;5.288;2023-02-28T09:20:12;9.57;;;3.35;;
32200;SDS011;18701;45.588;5.288;2023-02-28T09:22:37;7.88;;;3.35;;
32200;SDS011;18701;45.588;5.288;2023-02-28T09:25:03;7.82;;;3.80;;
32200;SDS011;18701;45.588;5.288;2023-02-28T09:27:29;7.00;;;3.80;;
32200;SDS011;18701;45.588;5.288;2023-02-28T09:29:55;4.78;;;3.13;;
32200;SDS011;18701;45.588;5.288;2023-02-28T09:32:20;7.05;;;3.00;;
32200;SDS011;18701;45.588;5.288;2023-02-28T09:34:46;6.90;;;3.08;;
32200;SDS011;18701;45.588;5.288;2023-02-28T09:37:11;7.55;;;3.58;;
32200;SDS011;18701;45.588;5.288;2023-02-28T09:39:37;6.30;;;3.28;;
32200;SDS011;18701;45.588;5.288;2023-02-28T09:42:03;5.82;;;3.22;;
32200;SDS011;18701;45.588;5.288;2023-02-28T09:44:36;7.65;;;3.22;;
32200;SDS011;18701;45.588;5.288;2023-02-28T09:49:51;7.53;;;3.30;;
32200;SDS011;18701;45.588;5.288;2023-02-28T09:52:18;8.57;;;3.30;;
32200;SDS011;18701;45.588;5.288;2023-02-28T09:54:46;7.95;;;3.20;;
32200;SDS011;18701;45.588;5.288;2023-02-28T09:57:17;7.20;;;3.35;;
32200;SDS011;18701;45.588;5.288;2023-02-28T10:05:16;4.35;;;2.50;;
32200;SDS011;18701;45.588;5.288;2023-02-28T10:13:04;9.15;;;3.13;;
32200;SDS011;18701;45.588;5.288;2023-02-28T10:15:37;4.13;;;2.85;;
32200;SDS011;18701;45.588;5.288;2023-02-28T10:18:04;8.88;;;3.70;;
32200;SDS011;18701;45.588;5.288;2023-02-28T10:20:37;4.10;;;2.80;;
32200;SDS011;18701;45.588;5.288;2023-02-28T10:23:09;5.40;;;3.22;;
32200;SDS011;18701;45.588;5.288;2023-02-28T10:25:52;5.60;;;2.97;;
32200;SDS011;18701;45.588;5.288;2023-02-28T10:28:26;9.63;;;2.90;;
32200;SDS011;18701;45.588;5.288;2023-02-28T10:30:55;6.05;;;3.17;;
32200;SDS011;18701;45.588;5.288;2023-02-28T10:33:28;7.35;;;3.80;;
32200;SDS011;18701;45.588;5.288;2023-02-28T10:35:56;6.10;;;2.53;;
32200;SDS011;18701;45.588;5.288;2023-02-28T10:38:40;7.03;;;3.25;;
32200;SDS011;18701;45.588;5.288;2023-02-28T10:41:07;4.88;;;3.00;;
32200;SDS011;18701;45.588;5.288;2023-02-28T10:43:36;4.72;;;2.92;;
32200;SDS011;18701;45.588;5.288;2023-02-28T10:48:36;9.48;;;3.70;;
32200;SDS011;18701;45.588;5.288;2023-02-28T10:51:05;7.97;;;3.30;;
32200;SDS011;18701;45.588;5.288;2023-02-28T10:53:34;5.18;;;3.55;;
32200;SDS011;18701;45.588;5.288;2023-02-28T11:03:42;4.65;;;3.15;;
32200;SDS011;18701;45.588;5.288;2023-02-28T11:06:13;6.95;;;3.08;;
32200;SDS011;18701;45.588;5.288;2023-02-28T11:08:43;6.90;;;2.85;;
32200;SDS011;18701;45.588;5.288;2023-02-28T11:11:14;4.80;;;3.15;;
32200;SDS011;18701;45.588;5.288;2023-02-28T11:13:41;14.38;;;3.33;;
32200;SDS011;18701;45.588;5.288;2023-02-28T11:16:09;6.97;;;3.35;;
32200;SDS011;18701;45.588;5.288;2023-02-28T11:18:46;4.38;;;3.13;;
32200;SDS011;18701;45.588;5.288;2023-02-28T11:21:29;6.30;;;3.33;;
32200;SDS011;18701;45.588;5.288;2023-02-28T11:26:53;5.82;;;3.40;;
32200;SDS011;18701;45.588;5.288;2023-02-28T11:32:01;7.53;;;4.15;;
32200;SDS011;18701;45.588;5.288;2023-02-28T11:34:33;5.88;;;3.80;;
32200;SDS011;18701;45.588;5.288;2023-02-28T11:37:01;7.35;;;3.67;;
32200;SDS011;18701;45.588;5.288;2023-02-28T11:39:30;8.07;;;4.10;;
32200;SDS011;18701;45.588;5.288;2023-02-28T11:47:32;7.80;;;4.35;;
32200;SDS011;18701;45.588;5.288;2023-02-28T11:53:51;9.07;;;4.55;;
32200;SDS011;18701;45.588;5.288;2023-02-28T11:56:38;8.70;;;4.40;;
32200;SDS011;18701;45.588;5.288;2023-02-28T12:04:39;7.00;;;4.38;;
32200;SDS011;18701;45.588;5.288;2023-02-28T12:07:18;5.45;;;3.72;;
32200;SDS011;18701;45.588;5.288;2023-02-28T12:10:06;6.47;;;3.90;;
32200;SDS011;18701;45.588;5.288;2023-02-28T12:15:51;5.35;;;3.70;;
32200;SDS011;18701;45.588;5.288;2023-02-28T12:26:48;5.10;;;3.58;;
32200;SDS011;18701;45.588;5.288;2023-02-28T12:29:32;6.95;;;4.28;;
32200;SDS011;18701;45.588;5.288;2023-02-28T12:34:50;7.75;;;4.70;;
32200;SDS011;18701;45.588;5.288;2023-02-28T12:37:21;7.30;;;4.00;;
32200;SDS011;18701;45.588;5.288;2023-02-28T12:39:56;9.90;;;4.82;;
32200;SDS011;18701;45.588;5.288;2023-02-28T12:42:31;5.60;;;4.20;;
32200;SDS011;18701;45.588;5.288;2023-02-28T12:47:35;10.13;;;5.22;;
32200;SDS011;18701;45.588;5.288;2023-02-28T12:50:04;7.47;;;5.05;;
32200;SDS011;18701;45.588;5.288;2023-02-28T12:58:07;11.57;;;5.40;;
32200;SDS011;18701;45.588;5.288;2023-02-28T13:00:37;7.38;;;5.10;;
32200;SDS011;18701;45.588;5.288;2023-02-28T13:03:27;14.15;;;4.90;;
32200;SDS011;18701;45.588;5.288;2023-02-28T13:13:58;8.15;;;5.18;;
32200;SDS011;18701;45.588;5.288;2023-02-28T13:16:26;10.38;;;5.68;;
32200;SDS011;18701;45.588;5.288;2023-02-28T13:18:52;13.48;;;5.45;;
32200;SDS011;18701;45.588;5.288;2023-02-28T13:21:33;6.90;;;4.15;;
32200;SDS011;18701;45.588;5.288;2023-02-28T13:24:08;15.55;;;6.05;;
32200;SDS011;18701;45.588;5.288;2023-02-28T13:34:27;8.45;;;5.25;;
32200;SDS011;18701;45.588;5.288;2023-02-28T13:37:20;9.80;;;5.20;;
32200;SDS011;18701;45.588;5.288;2023-02-28T13:39:59;8.73;;;5.20;;
32200;SDS011;18701;45.588;5.288;2023-02-28T13:42:35;8.35;;;5.13;;
32200;SDS011;18701;45.588;5.288;2023-02-28T13:47:39;10.13;;;4.85;;
32200;SDS011;18701;45.588;5.288;2023-02-28T13:55:37;6.28;;;4.68;;
32200;SDS011;18701;45.588;5.288;2023-02-28T14:01:00;6.38;;;5.13;;
32200;SDS011;18701;45.588;5.288;2023-02-28T14:09:05;8.70;;;5.43;;
32200;SDS011;18701;45.588;5.288;2023-02-28T14:11:51;5.53;;;4.55;;
32200;SDS011;18701;45.588;5.288;2023-02-28T14:17:15;8.18;;;5.03;;
32200;SDS011;18701;45.588;5.288;2023-02-28T14:19:45;10.23;;;5.45;;
32200;SDS011;18701;45.588;5.288;2023-02-28T14:36:18;7.25;;;4.70;;
32200;SDS011;18701;45.588;5.288;2023-02-28T14:38:52;7.68;;;4.55;;
32200;SDS011;18701;45.588;5.288;2023-02-28T14:43:58;6.47;;;4.68;;
32200;SDS011;18701;45.588;5.288;2023-02-28T14:46:35;12.38;;;5.10;;
32200;SDS011;18701;45.588;5.288;2023-02-28T14:49:04;11.57;;;5.38;;
32200;SDS011;18701;45.588;5.288;2023-02-28T14:51:32;7.05;;;4.38;;
32200;SDS011;18701;45.588;5.288;2023-02-28T14:53:59;7.22;;;5.40;;
32200;SDS011;18701;45.588;5.288;2023-02-28T14:56:32;8.15;;;5.40;;
32200;SDS011;18701;45.588;5.288;2023-02-28T14:59:01;8.20;;;5.38;;
32200;SDS011;18701;45.588;5.288;2023-02-28T15:01:26;7.57;;;5.40;;
32200;SDS011;18701;45.588;5.288;2023-02-28T15:04:00;7.88;;;5.38;;
32200;SDS011;18701;45.588;5.288;2023-02-28T15:06:28;6.55;;;5.60;;
32200;SDS011;18701;45.588;5.288;2023-02-28T15:09:13;8.60;;;6.05;;
32200;SDS011;18701;45.588;5.288;2023-02-28T15:11:40;10.85;;;6.35;;
32200;SDS011;18701;45.588;5.288;2023-02-28T15:14:07;9.32;;;6.18;;
32200;SDS011;18701;45.588;5.288;2023-02-28T15:16:39;9.77;;;5.80;;
32200;SDS011;18701;45.588;5.288;2023-02-28T15:19:13;9.63;;;6.43;;
32200;SDS011;18701;45.588;5.288;2023-02-28T15:22:35;7.43;;;5.95;;
32200;SDS011;18701;45.588;5.288;2023-02-28T15:24:44;9.18;;;5.97;;
32200;SDS011;18701;45.588;5.288;2023-02-28T15:27:30;10.38;;;6.57;;
32200;SDS011;18701;45.588;5.288;2023-02-28T15:30:04;8.73;;;5.95;;
32200;SDS011;18701;45.588;5.288;2023-02-28T15:32:34;9.45;;;6.38;;
32200;SDS011;18701;45.588;5.288;2023-02-28T15:35:26;9.27;;;6.50;;
32200;SDS011;18701;45.588;5.288;2023-02-28T15:37:54;9.40;;;5.85;;
32200;SDS011;18701;45.588;5.288;2023-02-28T15:40:25;8.57;;;6.72;;
32200;SDS011;18701;45.588;5.288;2023-02-28T15:45:47;9.35;;;7.00;;
32200;SDS011;18701;45.588;5.288;2023-02-28T15:48:26;12.07;;;6.82;;
32200;SDS011;18701;45.588;5.288;2023-02-28T15:51:16;9.27;;;6.57;;
32200;SDS011;18701;45.588;5.288;2023-02-28T15:56:30;8.68;;;6.13;;
32200;SDS011;18701;45.588;5.288;2023-02-28T15:59:32;10.02;;;5.80;;
32200;SDS011;18701;45.588;5.288;2023-02-28T16:02:02;8.25;;;6.22;;
32200;SDS011;18701;45.588;5.288;2023-02-28T16:04:28;13.10;;;6.50;;
32200;SDS011;18701;45.588;5.288;2023-02-28T16:09:25;10.77;;;7.22;;
32200;SDS011;18701;45.588;5.288;2023-02-28T16:11:53;12.45;;;6.75;;
32200;SDS011;18701;45.588;5.288;2023-02-28T16:14:24;8.25;;;5.80;;
32200;SDS011;18701;45.588;5.288;2023-02-28T16:17:05;12.00;;;6.63;;
32200;SDS011;18701;45.588;5.288;2023-02-28T16:19:33;12.55;;;6.35;;
32200;SDS011;18701;45.588;5.288;2023-02-28T16:22:00;10.25;;;6.53;;
32200;SDS011;18701;45.588;5.288;2023-02-28T16:24:26;9.27;;;6.57;;
32200;SDS011;18701;45.588;5.288;2023-02-28T16:26:52;8.07;;;6.93;;
32200;SDS011;18701;45.588;5.288;2023-02-28T16:29:33;12.57;;;6.80;;
32200;SDS011;18701;45.588;5.288;2023-02-28T16:32:01;9.80;;;7.00;;
32200;SDS011;18701;45.588;5.288;2023-02-28T16:34:30;10.60;;;7.45;;
32200;SDS011;18701;45.588;5.288;2023-02-28T16:36:55;11.52;;;7.75;;
32200;SDS011;18701;45.588;5.288;2023-02-28T16:39:21;12.95;;;7.82;;
32200;SDS011;18701;45.588;5.288;2023-02-28T16:41:47;13.20;;;7.30;;
32200;SDS011;18701;45.588;5.288;2023-02-28T16:44:21;9.48;;;6.40;;
32200;SDS011;18701;45.588;5.288;2023-02-28T16:46:53;10.55;;;6.38;;
32200;SDS011;18701;45.588;5.288;2023-02-28T16:49:18;14.65;;;6.72;;
32200;SDS011;18701;45.588;5.288;2023-02-28T16:51:44;11.80;;;7.07;;
32200;SDS011;18701;45.588;5.288;2023-02-28T16:54:09;11.05;;;7.28;;
32200;SDS011;18701;45.588;5.288;2023-02-28T16:56:35;9.65;;;7.38;;
32200;SDS011;18701;45.588;5.288;2023-02-28T16:59:02;10.18;;;7.22;;
32200;SDS011;18701;45.588;5.288;2023-02-28T17:01:27;12.77;;;7.97;;
32200;SDS011;18701;45.588;5.288;2023-02-28T17:03:53;11.60;;;8.63;;
32200;SDS011;18701;45.588;5.288;2023-02-28T17:06:20;13.55;;;7.72;;
32200;SDS011;18701;45.588;5.288;2023-02-28T17:08:53;13.52;;;6.53;;
32200;SDS011;18701;45.588;5.288;2023-02-28T17:11:19;14.13;;;6.85;;
32200;SDS011;18701;45.588;5.288;2023-02-28T17:13:45;11.52;;;7.43;;
32200;SDS011;18701;45.588;5.288;2023-02-28T17:16:17;11.73;;;7.03;;
32200;SDS011;18701;45.588;5.288;2023-02-28T17:18:59;10.60;;;6.97;;
32200;SDS011;18701;45.588;5.288;2023-02-28T17:21:26;14.10;;;7.57;;
32200;SDS011;18701;45.588;5.288;2023-02-28T17:23:52;11.63;;;6.20;;